createdAt,value
2022-09-22T00:02:19.425Z,6.01
2022-09-22T00:04:46.376Z,6.04
2022-09-22T00:07:13.194Z,6.05
2022-09-22T00:09:39.980Z,5.99
2022-09-22T00:12:06.881Z,5.60
2022-09-22T00:14:33.694Z,5.97
2022-09-22T00:17:01.711Z,5.92
2022-09-22T00:19:33.256Z,6.07
2022-09-22T00:22:00.407Z,5.97
2022-09-22T00:24:27.847Z,5.90
2022-09-22T00:26:57.533Z,5.92
2022-09-22T00:29:25.153Z,5.85
2022-09-22T00:31:52.095Z,5.77
2022-09-22T00:34:20.816Z,5.81
2022-09-22T00:36:47.691Z,5.74
2022-09-22T00:39:15.050Z,5.77
2022-09-22T00:41:44.691Z,5.73
2022-09-22T00:44:14.245Z,5.55
2022-09-22T00:46:42.696Z,5.51
2022-09-22T00:49:12.330Z,5.57
2022-09-22T00:51:41.564Z,5.60
2022-09-22T00:54:10.924Z,5.59
2022-09-22T00:56:42.324Z,5.57
2022-09-22T00:59:13.440Z,5.58
2022-09-22T01:01:40.465Z,5.62
2022-09-22T01:04:07.452Z,5.56
2022-09-22T01:06:35.920Z,5.57
2022-09-22T01:09:03.013Z,5.48
2022-09-22T01:11:30.209Z,5.46
2022-09-22T01:14:12.367Z,5.43
2022-09-22T01:16:39.137Z,5.39
2022-09-22T01:19:21.253Z,5.38
2022-09-22T01:22:03.179Z,5.36
2022-09-22T01:24:54.503Z,5.25
2022-09-22T01:27:39.753Z,5.27
2022-09-22T01:30:20.115Z,5.29
2022-09-22T01:32:56.295Z,5.27
2022-09-22T01:35:23.064Z,5.26
2022-09-22T01:37:54.286Z,5.17
2022-09-22T01:40:31.285Z,5.15
2022-09-22T01:43:02.609Z,5.14
2022-09-22T01:45:30.852Z,5.10
2022-09-22T01:47:59.609Z,5.11
2022-09-22T01:50:32.392Z,5.08
2022-09-22T01:53:01.165Z,5.06
2022-09-22T01:55:30.429Z,5.21
2022-09-22T01:58:03.397Z,5.25
2022-09-22T02:00:32.257Z,5.13
2022-09-22T02:03:19.028Z,5.12
2022-09-22T02:05:49.485Z,5.12
2022-09-22T02:08:28.455Z,5.12
2022-09-22T02:10:57.912Z,4.99
2022-09-22T02:13:25.055Z,4.99
2022-09-22T02:16:01.155Z,4.92
2022-09-22T02:18:31.533Z,4.81
2022-09-22T02:20:58.766Z,5.14
2022-09-22T02:23:25.705Z,5.10
2022-09-22T02:25:54.302Z,5.02
2022-09-22T02:28:22.270Z,4.94
2022-09-22T02:31:10.815Z,4.90
2022-09-22T02:33:40.492Z,4.81
2022-09-22T02:36:26.076Z,4.76
2022-09-22T02:39:02.012Z,4.77
2022-09-22T02:41:32.497Z,4.73
2022-09-22T02:44:08.952Z,4.78
2022-09-22T02:46:41.910Z,4.69
2022-09-22T02:49:14.653Z,4.66
2022-09-22T02:51:42.025Z,4.57
2022-09-22T02:54:08.853Z,4.56
2022-09-22T02:56:35.649Z,4.57
2022-09-22T02:59:02.467Z,4.57
2022-09-22T03:01:29.394Z,4.52
2022-09-22T03:03:56.303Z,4.51
2022-09-22T03:06:23.285Z,4.49
2022-09-22T03:08:50.097Z,4.49
2022-09-22T03:11:16.954Z,4.46
2022-09-22T03:13:43.772Z,4.14
2022-09-22T03:16:10.767Z,4.46
2022-09-22T03:18:37.656Z,4.42
2022-09-22T03:21:04.899Z,4.36
2022-09-22T03:23:31.793Z,4.30
2022-09-22T03:25:58.610Z,4.32
2022-09-22T03:28:25.406Z,4.33
2022-09-22T03:30:52.286Z,4.37
2022-09-22T03:33:19.113Z,4.35
2022-09-22T03:35:45.908Z,4.35
2022-09-22T03:38:12.826Z,4.34
2022-09-22T03:40:39.682Z,4.35
2022-09-22T03:43:06.524Z,4.34
2022-09-22T03:45:33.353Z,4.36
2022-09-22T03:48:00.292Z,4.31
2022-09-22T03:50:28.305Z,4.27
2022-09-22T03:52:56.787Z,4.18
2022-09-22T03:55:25.296Z,4.24
2022-09-22T03:57:52.156Z,4.17
2022-09-22T04:00:18.965Z,4.17
2022-09-22T04:02:45.785Z,4.11
2022-09-22T04:05:12.777Z,4.12
2022-09-22T04:07:39.569Z,4.15
2022-09-22T04:10:07.377Z,4.11
2022-09-22T04:12:34.811Z,4.08
2022-09-22T04:15:01.610Z,4.09
2022-09-22T04:17:28.437Z,4.03
2022-09-22T04:19:55.244Z,3.99
2022-09-22T04:22:22.104Z,3.96
2022-09-22T04:24:48.894Z,4.00
2022-09-22T04:27:19.884Z,3.95
2022-09-22T04:29:47.426Z,3.90
2022-09-22T04:32:14.617Z,3.88
2022-09-22T04:34:41.753Z,3.92
2022-09-22T04:37:09.215Z,3.96
2022-09-22T04:39:36.427Z,3.88
2022-09-22T04:42:03.606Z,3.86
2022-09-22T04:44:34.592Z,3.90
2022-09-22T04:47:01.937Z,3.97
2022-09-22T04:49:28.732Z,3.92
2022-09-22T04:51:55.567Z,3.95
2022-09-22T04:54:22.615Z,3.88
2022-09-22T04:56:49.449Z,3.89
2022-09-22T04:59:16.250Z,3.88
2022-09-22T05:01:43.187Z,3.86
2022-09-22T05:04:10.068Z,3.87
2022-09-22T05:06:36.980Z,3.93
2022-09-22T05:09:03.851Z,3.85
2022-09-22T05:11:31.787Z,3.87
2022-09-22T05:13:58.691Z,3.73
2022-09-22T05:16:25.853Z,3.69
2022-09-22T05:18:52.832Z,3.72
2022-09-22T05:21:19.918Z,3.76
2022-09-22T05:23:46.778Z,3.80
2022-09-22T05:26:13.683Z,3.80
2022-09-22T05:28:40.833Z,3.83
2022-09-22T05:31:07.742Z,3.83
2022-09-22T05:33:34.614Z,3.85
2022-09-22T05:36:01.557Z,3.85
2022-09-22T05:38:28.874Z,3.87
2022-09-22T05:40:55.682Z,3.91
2022-09-22T05:43:22.492Z,3.95
2022-09-22T05:45:49.848Z,3.99
2022-09-22T05:48:16.962Z,4.15
2022-09-22T05:50:45.077Z,4.18
2022-09-22T05:53:12.334Z,4.31
2022-09-22T05:55:39.904Z,4.30
2022-09-22T05:58:06.823Z,4.39
2022-09-22T06:00:33.702Z,4.47
2022-09-22T06:03:00.604Z,4.46
2022-09-22T06:05:27.463Z,4.46
2022-09-22T06:07:59.531Z,4.43
2022-09-22T06:10:26.948Z,4.60
2022-09-22T06:13:01.047Z,4.74
2022-09-22T06:15:28.591Z,4.81
2022-09-22T06:17:56.113Z,4.88
2022-09-22T06:20:23.463Z,4.81
2022-09-22T06:22:50.859Z,4.95
2022-09-22T06:25:18.004Z,5.05
2022-09-22T06:27:45.057Z,5.17
2022-09-22T06:30:12.231Z,5.23
2022-09-22T06:32:39.328Z,5.44
2022-09-22T06:35:07.405Z,5.51
2022-09-22T06:37:38.473Z,5.66
2022-09-22T06:40:08.020Z,5.77
2022-09-22T06:42:35.677Z,5.83
2022-09-22T06:45:04.432Z,5.90
2022-09-22T06:47:32.861Z,5.98
2022-09-22T06:50:01.254Z,6.04
2022-09-22T06:52:28.850Z,6.17
2022-09-22T06:54:58.622Z,6.23
2022-09-22T06:57:28.952Z,6.36
2022-09-22T06:59:56.219Z,6.55
2022-09-22T07:02:27.698Z,6.58
2022-09-22T07:04:58.950Z,6.67
2022-09-22T07:07:27.889Z,6.76
2022-09-22T07:09:55.106Z,6.98
2022-09-22T07:12:22.344Z,6.96
2022-09-22T07:14:49.542Z,7.12
2022-09-22T07:17:16.561Z,7.19
2022-09-22T07:19:43.462Z,7.12
2022-09-22T07:22:10.313Z,7.37
2022-09-22T07:24:37.201Z,7.49
2022-09-22T07:27:04.936Z,7.71
2022-09-22T07:29:32.117Z,7.63
2022-09-22T07:31:59.497Z,7.69
2022-09-22T07:34:26.370Z,7.85
2022-09-22T07:36:53.425Z,7.61
2022-09-22T07:39:20.272Z,7.74
2022-09-22T07:41:47.890Z,8.04
2022-09-22T07:44:35.450Z,8.23
2022-09-22T07:47:03.364Z,8.36
2022-09-22T07:49:30.489Z,8.54
2022-09-22T07:51:57.483Z,8.68
2022-09-22T07:54:24.966Z,8.86
2022-09-22T07:56:55.972Z,9.03
2022-09-22T07:59:22.818Z,9.32
2022-09-22T08:01:50.686Z,9.49
2022-09-22T08:04:18.888Z,9.73
2022-09-22T08:06:46.547Z,9.79
2022-09-22T08:09:13.597Z,10.06
2022-09-22T08:11:44.307Z,10.01
2022-09-22T08:14:11.879Z,10.21
2022-09-22T08:16:40.486Z,10.37
2022-09-22T08:19:12.368Z,10.46
2022-09-22T08:21:48.045Z,10.52
2022-09-22T08:24:16.190Z,10.67
2022-09-22T08:26:48.406Z,10.84
2022-09-22T08:29:15.496Z,11.05
2022-09-22T08:31:42.579Z,11.22
2022-09-22T08:34:09.505Z,11.51
2022-09-22T08:36:36.960Z,11.75
2022-09-22T08:39:03.858Z,11.89
2022-09-22T08:41:38.087Z,12.12
2022-09-22T08:44:08.633Z,12.26
2022-09-22T08:46:35.561Z,12.46
2022-09-22T08:49:35.972Z,12.56
2022-09-22T08:52:06.201Z,12.68
2022-09-22T08:54:33.062Z,12.86
2022-09-22T08:57:15.222Z,12.99
2022-09-22T08:59:45.995Z,13.14
2022-09-22T09:02:33.888Z,13.27
2022-09-22T09:05:12.025Z,13.43
2022-09-22T09:07:43.714Z,13.54
2022-09-22T09:10:16.761Z,13.58
2022-09-22T09:12:52.465Z,13.82
2022-09-22T09:15:39.241Z,13.98
2022-09-22T09:18:12.829Z,14.05
2022-09-22T09:20:49.292Z,14.13
2022-09-22T09:23:18.240Z,14.01
2022-09-22T09:25:47.819Z,13.90
2022-09-22T09:28:27.903Z,13.81
2022-09-22T09:31:07.545Z,13.55
2022-09-22T09:33:34.517Z,13.30
2022-09-22T09:36:01.984Z,13.18
2022-09-22T09:38:35.473Z,13.17
2022-09-22T09:41:11.623Z,13.19
2022-09-22T09:43:42.402Z,13.59
2022-09-22T09:46:30.165Z,14.01
2022-09-22T09:49:06.136Z,14.04
2022-09-22T09:51:39.878Z,13.90
2022-09-22T09:54:11.868Z,14.25
2022-09-22T09:57:01.424Z,14.42
2022-09-22T09:59:47.344Z,14.89
2022-09-22T10:02:14.928Z,15.40
2022-09-22T10:04:48.709Z,15.58
2022-09-22T10:07:24.580Z,15.86
2022-09-22T10:09:52.044Z,15.94
2022-09-22T10:12:28.417Z,16.03
2022-09-22T10:14:56.647Z,16.09
2022-09-22T10:17:27.111Z,16.28
2022-09-22T10:20:13.916Z,16.33
2022-09-22T10:22:42.538Z,16.37
2022-09-22T10:25:19.429Z,16.47
2022-09-22T10:27:59.130Z,16.39
2022-09-22T10:30:28.132Z,16.33
2022-09-22T10:33:05.550Z,16.45
2022-09-22T10:35:36.090Z,16.13
2022-09-22T10:38:15.586Z,15.99
2022-09-22T10:40:44.673Z,16.00
2022-09-22T10:43:22.862Z,16.18
2022-09-22T10:46:08.152Z,16.32
2022-09-22T10:48:40.849Z,16.41
2022-09-22T10:51:14.493Z,16.58
2022-09-22T10:53:47.224Z,16.48
2022-09-22T10:56:33.665Z,16.59
2022-09-22T10:59:35.828Z,16.75
2022-09-22T11:02:16.968Z,16.07
2022-09-22T11:05:02.501Z,16.67
2022-09-22T11:07:55.406Z,16.82
2022-09-22T11:10:50.191Z,16.87
2022-09-22T11:13:28.528Z,16.47
2022-09-22T11:16:16.213Z,16.26
2022-09-22T11:19:02.662Z,16.22
2022-09-22T11:21:44.362Z,16.41
2022-09-22T11:24:19.860Z,16.72
2022-09-22T11:26:54.719Z,16.91
2022-09-22T11:29:30.922Z,16.70
2022-09-22T11:32:06.405Z,16.33
2022-09-22T11:34:33.207Z,16.10
2022-09-22T11:37:25.446Z,16.28
2022-09-22T11:40:04.089Z,16.66
2022-09-22T11:42:30.980Z,16.78
2022-09-22T11:44:58.052Z,17.04
2022-09-22T11:47:27.842Z,17.16
2022-09-22T11:50:05.005Z,17.14
2022-09-22T11:52:50.410Z,17.26
2022-09-22T11:55:34.642Z,17.34
2022-09-22T11:58:05.081Z,17.30
2022-09-22T12:00:45.150Z,17.41
2022-09-22T12:03:18.186Z,17.62
2022-09-22T12:05:48.386Z,17.59
2022-09-22T12:08:17.410Z,17.43
2022-09-22T12:10:45.145Z,17.30
2022-09-22T12:13:15.192Z,17.21
2022-09-22T12:15:52.331Z,17.13
2022-09-22T12:18:25.238Z,16.94
2022-09-22T12:21:04.370Z,16.94
2022-09-22T12:23:38.823Z,17.07
2022-09-22T12:26:07.961Z,17.29
2022-09-22T12:28:38.639Z,17.40
2022-09-22T12:31:07.988Z,17.21
2022-09-22T12:33:36.439Z,17.39
2022-09-22T12:36:04.028Z,17.53
2022-09-22T12:38:31.430Z,17.50
2022-09-22T12:41:02.283Z,17.27
2022-09-22T12:43:29.520Z,17.45
2022-09-22T12:45:57.282Z,17.57
2022-09-22T12:48:34.618Z,17.77
2022-09-22T12:51:28.365Z,17.84
2022-09-22T12:54:14.115Z,17.79
2022-09-22T12:56:44.824Z,17.60
2022-09-22T12:59:30.192Z,17.63
2022-09-22T13:02:15.799Z,17.72
2022-09-22T13:04:58.524Z,17.84
2022-09-22T13:07:37.639Z,17.63
2022-09-22T13:10:22.757Z,17.54
2022-09-22T13:13:02.134Z,17.69
2022-09-22T13:15:31.933Z,17.45
2022-09-22T13:17:58.912Z,17.68
2022-09-22T13:20:28.542Z,17.78
2022-09-22T13:23:03.235Z,17.71
2022-09-22T13:25:31.214Z,17.64
2022-09-22T13:28:05.243Z,17.50
2022-09-22T13:30:32.283Z,17.49
2022-09-22T13:32:59.284Z,17.63
2022-09-22T13:35:32.228Z,17.67
2022-09-22T13:37:59.586Z,17.65
2022-09-22T13:40:31.699Z,17.67
2022-09-22T13:43:00.674Z,17.72
2022-09-22T13:45:27.942Z,17.60
2022-09-22T13:47:57.587Z,17.56
2022-09-22T13:50:24.704Z,17.50
2022-09-22T13:52:52.012Z,17.40
2022-09-22T13:55:25.707Z,17.40
2022-09-22T13:57:55.369Z,17.42
2022-09-22T14:00:24.518Z,17.55
2022-09-22T14:02:52.220Z,17.50
2022-09-22T14:05:21.321Z,17.53
2022-09-22T14:08:07.650Z,17.54
2022-09-22T14:10:35.116Z,17.37
2022-09-22T14:13:01.918Z,17.32
2022-09-22T14:15:33.373Z,17.33
2022-09-22T14:18:01.889Z,17.23
2022-09-22T14:20:28.842Z,17.16
2022-09-22T14:22:55.730Z,17.22
2022-09-22T14:25:23.025Z,17.28
2022-09-22T14:27:55.281Z,17.21
2022-09-22T14:30:31.167Z,17.35
2022-09-22T14:32:59.194Z,17.33
2022-09-22T14:35:36.780Z,17.37
2022-09-22T14:38:19.025Z,17.42
2022-09-22T14:40:53.982Z,17.41
2022-09-22T14:43:23.827Z,17.37
2022-09-22T14:46:00.778Z,17.44
2022-09-22T14:48:29.469Z,17.37
2022-09-22T14:50:59.325Z,17.30
2022-09-22T14:53:29.698Z,17.10
2022-09-22T14:56:05.866Z,17.25
2022-09-22T14:58:43.437Z,17.29
2022-09-22T15:01:42.458Z,17.13
2022-09-22T15:04:17.909Z,17.13
2022-09-22T15:06:46.631Z,17.14
2022-09-22T15:09:24.177Z,17.24
2022-09-22T15:11:53.614Z,17.34
2022-09-22T15:14:24.773Z,17.36
2022-09-22T15:16:51.954Z,17.38
2022-09-22T15:19:20.372Z,17.31
2022-09-22T15:21:48.369Z,17.34
2022-09-22T15:24:21.088Z,17.25
2022-09-22T15:26:47.917Z,17.26
2022-09-22T15:29:17.305Z,17.15
2022-09-22T15:31:44.207Z,17.31
2022-09-22T15:34:14.497Z,17.49
2022-09-22T15:36:45.810Z,17.52
2022-09-22T15:39:19.380Z,17.35
2022-09-22T15:41:48.101Z,17.21
2022-09-22T15:44:15.411Z,17.10
2022-09-22T15:46:43.203Z,16.97
2022-09-22T15:49:13.068Z,16.85
2022-09-22T15:51:39.898Z,16.73
2022-09-22T15:54:13.291Z,16.82
2022-09-22T15:56:41.244Z,18.02
2022-09-22T15:59:15.935Z,19.12
2022-09-22T16:01:43.553Z,19.94
2022-09-22T16:04:10.420Z,19.76
2022-09-22T16:06:37.844Z,19.08
2022-09-22T16:09:04.749Z,19.14
2022-09-22T16:11:31.726Z,19.41
2022-09-22T16:14:01.080Z,19.32
2022-09-22T16:16:28.805Z,19.55
2022-09-22T16:18:56.266Z,18.59
2022-09-22T16:21:25.972Z,17.87
2022-09-22T16:23:59.435Z,17.42
2022-09-22T16:26:31.216Z,17.23
2022-09-22T16:28:58.474Z,16.98
2022-09-22T16:31:25.717Z,16.73
2022-09-22T16:33:54.708Z,16.69
2022-09-22T16:36:22.021Z,16.58
2022-09-22T16:38:49.225Z,16.46
2022-09-22T16:41:20.329Z,16.34
2022-09-22T16:43:47.904Z,16.08
2022-09-22T16:46:27.986Z,16.01
2022-09-22T16:49:00.413Z,15.76
2022-09-22T16:51:27.862Z,15.79
2022-09-22T16:53:54.774Z,15.62
2022-09-22T16:56:23.013Z,15.47
2022-09-22T16:58:50.074Z,15.38
2022-09-22T17:01:19.773Z,15.24
2022-09-22T17:03:49.383Z,15.17
2022-09-22T17:06:18.184Z,15.07
2022-09-22T17:08:45.790Z,14.99
2022-09-22T17:11:16.415Z,14.90
2022-09-22T17:13:43.942Z,14.73
2022-09-22T17:16:21.379Z,14.60
2022-09-22T17:18:52.031Z,14.44
2022-09-22T17:21:21.832Z,14.27
2022-09-22T17:23:49.723Z,14.19
2022-09-22T17:26:17.222Z,14.08
2022-09-22T17:28:44.097Z,13.84
2022-09-22T17:31:10.964Z,13.67
2022-09-22T17:33:49.958Z,13.51
2022-09-22T17:36:21.064Z,13.43
2022-09-22T17:38:50.577Z,13.40
2022-09-22T17:41:19.564Z,13.28
2022-09-22T17:43:48.312Z,13.11
2022-09-22T17:46:16.728Z,12.99
2022-09-22T17:49:02.669Z,12.83
2022-09-22T17:51:48.287Z,12.80
2022-09-22T17:54:36.976Z,12.74
2022-09-22T17:57:05.309Z,12.68
2022-09-22T17:59:32.789Z,12.59
2022-09-22T18:02:00.367Z,12.50
2022-09-22T18:04:27.985Z,12.58
2022-09-22T18:06:54.861Z,12.48
2022-09-22T18:09:21.664Z,12.46
2022-09-22T18:11:48.537Z,12.32
2022-09-22T18:14:15.908Z,12.17
2022-09-22T18:16:42.756Z,12.05
2022-09-22T18:19:09.659Z,12.02
2022-09-22T18:21:39.200Z,11.97
2022-09-22T18:24:06.827Z,11.92
2022-09-22T18:26:38.087Z,11.87
2022-09-22T18:29:10.020Z,11.79
2022-09-22T18:31:38.067Z,11.76
2022-09-22T18:34:07.475Z,11.62
2022-09-22T18:36:34.834Z,11.51
2022-09-22T18:39:02.025Z,11.56
2022-09-22T18:41:29.337Z,11.49
2022-09-22T18:43:57.041Z,11.43
2022-09-22T18:46:24.203Z,11.41
2022-09-22T18:48:57.341Z,11.51
2022-09-22T18:51:27.989Z,11.33
2022-09-22T18:53:54.842Z,11.14
2022-09-22T18:56:23.449Z,11.17
2022-09-22T18:58:52.435Z,11.23
2022-09-22T19:01:20.171Z,11.02
2022-09-22T19:03:48.516Z,10.94
2022-09-22T19:06:15.503Z,10.99
2022-09-22T19:08:42.354Z,10.91
2022-09-22T19:11:10.110Z,10.76
2022-09-22T19:13:40.097Z,10.76
2022-09-22T19:16:07.436Z,10.59
2022-09-22T19:18:34.268Z,10.49
2022-09-22T19:21:03.715Z,10.68
2022-09-22T19:23:32.431Z,10.47
2022-09-22T19:25:59.808Z,10.46
2022-09-22T19:28:26.945Z,10.51
2022-09-22T19:30:53.781Z,10.39
2022-09-22T19:33:20.668Z,10.37
2022-09-22T19:35:47.482Z,10.27
2022-09-22T19:38:14.323Z,10.50
2022-09-22T19:40:41.363Z,10.49
2022-09-22T19:43:08.366Z,10.35
2022-09-22T19:45:35.431Z,10.39
2022-09-22T19:48:02.342Z,10.44
2022-09-22T19:50:29.149Z,10.29
2022-09-22T19:52:55.966Z,10.17
2022-09-22T19:55:22.873Z,10.18
2022-09-22T19:57:52.213Z,10.00
2022-09-22T20:00:25.739Z,9.93
2022-09-22T20:02:59.502Z,9.87
2022-09-22T20:05:32.488Z,9.79
2022-09-22T20:07:59.354Z,9.70
2022-09-22T20:10:26.306Z,9.67
2022-09-22T20:12:53.504Z,9.60
2022-09-22T20:15:20.441Z,9.57
2022-09-22T20:17:47.254Z,9.60
2022-09-22T20:20:19.584Z,9.74
2022-09-22T20:22:46.925Z,9.63
2022-09-22T20:25:19.989Z,9.68
2022-09-22T20:27:47.892Z,9.61
2022-09-22T20:30:16.023Z,9.48
2022-09-22T20:32:43.563Z,9.57
2022-09-22T20:35:11.993Z,9.57
2022-09-22T20:37:39.266Z,9.41
2022-09-22T20:40:07.636Z,9.52
2022-09-22T20:42:34.573Z,9.53
2022-09-22T20:45:01.402Z,9.41
2022-09-22T20:47:28.271Z,9.22
2022-09-22T20:49:55.113Z,9.01
2022-09-22T20:52:21.984Z,9.22
2022-09-22T20:54:48.844Z,9.08
2022-09-22T20:57:16.042Z,9.05
2022-09-22T20:59:46.185Z,9.01
2022-09-22T21:02:13.880Z,8.90
2022-09-22T21:04:41.252Z,8.72
2022-09-22T21:07:08.436Z,8.75
2022-09-22T21:10:04.600Z,8.73
2022-09-22T21:12:31.670Z,8.63
2022-09-22T21:14:58.983Z,8.61
2022-09-22T21:17:27.647Z,8.53
2022-09-22T21:19:57.701Z,8.61
2022-09-22T21:22:25.786Z,8.56
2022-09-22T21:24:52.942Z,8.50
2022-09-22T21:27:20.465Z,8.51
2022-09-22T21:29:49.418Z,8.40
2022-09-22T21:32:17.301Z,8.28
2022-09-22T21:34:44.312Z,8.24
2022-09-22T21:37:11.320Z,8.23
2022-09-22T21:39:38.400Z,8.24
2022-09-22T21:42:05.872Z,8.18
2022-09-22T21:44:32.922Z,8.07
2022-09-22T21:47:00.057Z,8.16
2022-09-22T21:49:27.118Z,8.21
2022-09-22T21:51:54.194Z,8.12
2022-09-22T21:54:21.398Z,8.11
2022-09-22T21:56:50.442Z,8.03
2022-09-22T21:59:17.722Z,7.93
2022-09-22T22:01:45.097Z,8.00
2022-09-22T22:04:15.231Z,7.86
2022-09-22T22:06:43.892Z,7.72
2022-09-22T22:09:14.684Z,7.66
2022-09-22T22:11:43.709Z,7.62
2022-09-22T22:14:11.726Z,7.58
2022-09-22T22:16:42.857Z,7.58
2022-09-22T22:19:12.831Z,7.52
2022-09-22T22:21:42.834Z,7.45
2022-09-22T22:24:36.656Z,7.49
2022-09-22T22:27:09.944Z,7.40
2022-09-22T22:29:38.908Z,7.41
2022-09-22T22:32:07.163Z,7.42
2022-09-22T22:34:34.367Z,7.43
2022-09-22T22:37:01.569Z,7.37
2022-09-22T22:39:30.004Z,7.32
2022-09-22T22:41:57.158Z,7.32
2022-09-22T22:44:24.145Z,7.34
2022-09-22T22:46:51.072Z,7.30
2022-09-22T22:49:17.932Z,7.14
2022-09-22T22:51:44.830Z,7.12
2022-09-22T22:54:12.139Z,7.15
2022-09-22T22:56:42.006Z,7.06
2022-09-22T22:59:09.969Z,6.92
2022-09-22T23:01:37.355Z,6.88
2022-09-22T23:04:05.605Z,6.99
2022-09-22T23:06:35.688Z,7.00
2022-09-22T23:09:03.745Z,6.91
2022-09-22T23:11:32.154Z,6.85
2022-09-22T23:14:02.951Z,6.87
2022-09-22T23:16:31.071Z,6.80
2022-09-22T23:18:59.583Z,6.81
2022-09-22T23:21:26.429Z,6.74
2022-09-22T23:23:53.862Z,6.76
2022-09-22T23:26:20.927Z,6.71
2022-09-22T23:28:47.797Z,6.66
2022-09-22T23:31:18.572Z,6.58
2022-09-22T23:33:46.081Z,6.47
2022-09-22T23:36:14.376Z,6.49
2022-09-22T23:38:41.278Z,6.53
2022-09-22T23:41:08.855Z,6.46
2022-09-22T23:43:35.797Z,6.40
2022-09-22T23:46:04.653Z,6.43
2022-09-22T23:48:31.914Z,6.43
2022-09-22T23:50:59.385Z,6.38
2022-09-22T23:53:30.922Z,6.47
2022-09-22T23:55:57.774Z,6.41
2022-09-22T23:58:24.687Z,6.39
